sensor_id;sensor_type;location;lat;lon;timestamp;pressure;altitude;pressure_sealevel;temperature;humidity
11415;BME280;5763;42.714;23.244;2022-10-22T00:01:38;95419.53;;;10.67;67.62
11415;BME280;5763;42.714;23.244;2022-10-22T00:04:05;95427.56;;;10.74;68.10
11415;BME280;5763;42.714;23.244;2022-10-22T00:06:32;95417.63;;;10.80;67.55
11415;BME280;5763;42.714;23.244;2022-10-22T00:08:59;95413.34;;;10.79;66.69
11415;BME280;5763;42.714;23.244;2022-10-22T00:11:26;95418.84;;;10.79;66.63
11415;BME280;5763;42.714;23.244;2022-10-22T00:13:53;95417.38;;;10.75;67.05
11415;BME280;5763;42.714;23.244;2022-10-22T00:16:21;95418.84;;;10.79;67.05
11415;BME280;5763;42.714;23.244;2022-10-22T00:18:48;95416.09;;;10.79;67.15
11415;BME280;5763;42.714;23.244;2022-10-22T00:21:15;95410.09;;;10.56;67.65
11415;BME280;5763;42.714;23.244;2022-10-22T00:23:42;95410.38;;;10.74;68.14
11415;BME280;5763;42.714;23.244;2022-10-22T00:26:09;95401.41;;;10.73;67.74
11415;BME280;5763;42.714;23.244;2022-10-22T00:28:36;95397.78;;;10.76;67.56
11415;BME280;5763;42.714;23.244;2022-10-22T00:31:03;95402.72;;;10.81;67.62
11415;BME280;5763;42.714;23.244;2022-10-22T00:33:32;95406.53;;;10.71;67.86
11415;BME280;5763;42.714;23.244;2022-10-22T00:35:59;95403.47;;;10.69;67.66
11415;BME280;5763;42.714;23.244;2022-10-22T00:38:25;95388.88;;;10.60;68.17
11415;BME280;5763;42.714;23.244;2022-10-22T00:40:52;95400.78;;;10.53;68.39
11415;BME280;5763;42.714;23.244;2022-10-22T00:43:19;95403.16;;;10.51;68.73
11415;BME280;5763;42.714;23.244;2022-10-22T00:45:46;95405.72;;;10.58;68.91
11415;BME280;5763;42.714;23.244;2022-10-22T00:48:15;95407.06;;;10.66;67.71
11415;BME280;5763;42.714;23.244;2022-10-22T00:50:46;95407.69;;;10.58;68.41
11415;BME280;5763;42.714;23.244;2022-10-22T00:53:20;95401.88;;;10.56;68.23
11415;BME280;5763;42.714;23.244;2022-10-22T00:55:50;95392.56;;;10.53;68.63
11415;BME280;5763;42.714;23.244;2022-10-22T00:58:18;95388.19;;;10.56;68.09
11415;BME280;5763;42.714;23.244;2022-10-22T01:00:46;95391.56;;;10.47;68.47
11415;BME280;5763;42.714;23.244;2022-10-22T01:03:13;95385.31;;;10.47;68.93
11415;BME280;5763;42.714;23.244;2022-10-22T01:05:42;95379.06;;;10.46;68.39
11415;BME280;5763;42.714;23.244;2022-10-22T01:08:24;95382.09;;;10.36;68.51
11415;BME280;5763;42.714;23.244;2022-10-22T01:10:58;95368.94;;;10.31;68.90
11415;BME280;5763;42.714;23.244;2022-10-22T01:13:37;95370.56;;;10.28;69.07
11415;BME280;5763;42.714;23.244;2022-10-22T01:16:10;95369.03;;;10.27;68.88
11415;BME280;5763;42.714;23.244;2022-10-22T01:18:47;95365.31;;;10.21;69.79
11415;BME280;5763;42.714;23.244;2022-10-22T01:21:25;95356.91;;;10.28;69.17
11415;BME280;5763;42.714;23.244;2022-10-22T01:24:24;95357.81;;;10.38;69.03
11415;BME280;5763;42.714;23.244;2022-10-22T01:27:12;95351.22;;;10.35;69.28
11415;BME280;5763;42.714;23.244;2022-10-22T01:29:45;95350.53;;;10.31;69.61
11415;BME280;5763;42.714;23.244;2022-10-22T01:32:16;95345.28;;;10.24;69.54
11415;BME280;5763;42.714;23.244;2022-10-22T01:34:48;95351.75;;;10.30;69.63
11415;BME280;5763;42.714;23.244;2022-10-22T01:37:17;95355.25;;;10.31;69.93
11415;BME280;5763;42.714;23.244;2022-10-22T01:39:46;95344.31;;;10.31;69.47
11415;BME280;5763;42.714;23.244;2022-10-22T01:42:14;95339.44;;;10.38;69.49
11415;BME280;5763;42.714;23.244;2022-10-22T01:44:42;95336.28;;;10.40;68.78
11415;BME280;5763;42.714;23.244;2022-10-22T01:47:19;95336.00;;;10.34;69.04
11415;BME280;5763;42.714;23.244;2022-10-22T01:50:14;95343.78;;;10.36;68.81
11415;BME280;5763;42.714;23.244;2022-10-22T01:52:57;95334.66;;;10.26;69.50
11415;BME280;5763;42.714;23.244;2022-10-22T01:55:33;95347.59;;;10.26;69.60
11415;BME280;5763;42.714;23.244;2022-10-22T01:58:12;95331.59;;;10.24;69.20
11415;BME280;5763;42.714;23.244;2022-10-22T02:00:49;95341.09;;;10.20;69.33
11415;BME280;5763;42.714;23.244;2022-10-22T02:03:23;95343.75;;;10.23;68.82
11415;BME280;5763;42.714;23.244;2022-10-22T02:05:54;95330.41;;;10.25;68.46
11415;BME280;5763;42.714;23.244;2022-10-22T02:08:23;95333.91;;;10.26;68.10
11415;BME280;5763;42.714;23.244;2022-10-22T02:10:53;95332.91;;;10.20;68.50
11415;BME280;5763;42.714;23.244;2022-10-22T02:13:24;95334.00;;;10.22;69.80
11415;BME280;5763;42.714;23.244;2022-10-22T02:15:54;95342.75;;;10.17;70.02
11415;BME280;5763;42.714;23.244;2022-10-22T02:18:26;95332.75;;;10.11;69.72
11415;BME280;5763;42.714;23.244;2022-10-22T02:20:54;95326.94;;;10.09;69.43
11415;BME280;5763;42.714;23.244;2022-10-22T02:23:21;95337.00;;;9.96;70.04
11415;BME280;5763;42.714;23.244;2022-10-22T02:25:53;95340.28;;;9.91;69.59
11415;BME280;5763;42.714;23.244;2022-10-22T02:28:25;95350.28;;;9.81;69.97
11415;BME280;5763;42.714;23.244;2022-10-22T02:30:59;95346.34;;;9.82;70.53
11415;BME280;5763;42.714;23.244;2022-10-22T02:33:30;95343.53;;;9.86;70.76
11415;BME280;5763;42.714;23.244;2022-10-22T02:36:00;95343.84;;;9.88;70.66
11415;BME280;5763;42.714;23.244;2022-10-22T02:38:28;95338.75;;;9.90;70.36
11415;BME280;5763;42.714;23.244;2022-10-22T02:40:56;95346.66;;;10.00;69.39
11415;BME280;5763;42.714;23.244;2022-10-22T02:43:23;95360.31;;;10.00;69.22
11415;BME280;5763;42.714;23.244;2022-10-22T02:45:50;95358.09;;;9.95;69.37
11415;BME280;5763;42.714;23.244;2022-10-22T02:48:19;95355.38;;;9.95;69.19
11415;BME280;5763;42.714;23.244;2022-10-22T02:50:45;95358.47;;;9.97;69.36
11415;BME280;5763;42.714;23.244;2022-10-22T02:53:12;95362.03;;;9.94;69.67
11415;BME280;5763;42.714;23.244;2022-10-22T02:55:39;95342.22;;;9.90;70.03
11415;BME280;5763;42.714;23.244;2022-10-22T02:58:06;95352.31;;;9.93;69.66
11415;BME280;5763;42.714;23.244;2022-10-22T03:00:32;95353.94;;;9.91;70.34
11415;BME280;5763;42.714;23.244;2022-10-22T03:02:59;95305.28;;;9.54;70.46
11415;BME280;5763;42.714;23.244;2022-10-22T03:05:27;95355.47;;;9.92;70.36
11415;BME280;5763;42.714;23.244;2022-10-22T03:07:54;95350.09;;;9.88;70.19
11415;BME280;5763;42.714;23.244;2022-10-22T03:10:21;95346.59;;;9.88;70.76
11415;BME280;5763;42.714;23.244;2022-10-22T03:12:47;95347.25;;;9.92;70.72
11415;BME280;5763;42.714;23.244;2022-10-22T03:15:14;95340.28;;;9.91;71.00
11415;BME280;5763;42.714;23.244;2022-10-22T03:17:41;95338.75;;;9.90;71.32
11415;BME280;5763;42.714;23.244;2022-10-22T03:20:08;95296.06;;;9.64;71.00
11415;BME280;5763;42.714;23.244;2022-10-22T03:22:38;95334.19;;;9.99;70.89
11415;BME280;5763;42.714;23.244;2022-10-22T03:25:09;95343.59;;;9.98;70.53
11415;BME280;5763;42.714;23.244;2022-10-22T03:27:38;95350.69;;;9.96;70.50
11415;BME280;5763;42.714;23.244;2022-10-22T03:30:06;95349.47;;;9.97;70.23
11415;BME280;5763;42.714;23.244;2022-10-22T03:32:33;95339.94;;;9.89;70.71
11415;BME280;5763;42.714;23.244;2022-10-22T03:35:00;95339.16;;;9.88;70.45
11415;BME280;5763;42.714;23.244;2022-10-22T03:37:27;95334.53;;;9.85;70.96
11415;BME280;5763;42.714;23.244;2022-10-22T03:39:56;95328.41;;;9.81;70.90
11415;BME280;5763;42.714;23.244;2022-10-22T03:42:23;95332.50;;;9.89;70.44
11415;BME280;5763;42.714;23.244;2022-10-22T03:44:50;95334.13;;;9.87;70.09
11415;BME280;5763;42.714;23.244;2022-10-22T03:47:17;95343.84;;;9.88;70.41
11415;BME280;5763;42.714;23.244;2022-10-22T03:49:44;95338.84;;;9.86;69.95
11415;BME280;5763;42.714;23.244;2022-10-22T03:52:13;95333.28;;;9.90;69.74
11415;BME280;5763;42.714;23.244;2022-10-22T03:54:40;95339.06;;;9.92;69.76
11415;BME280;5763;42.714;23.244;2022-10-22T03:57:09;95332.06;;;9.91;69.68
11415;BME280;5763;42.714;23.244;2022-10-22T03:59:37;95332.84;;;9.91;69.72
11415;BME280;5763;42.714;23.244;2022-10-22T04:02:04;95326.09;;;9.80;69.63
11415;BME280;5763;42.714;23.244;2022-10-22T04:04:31;95322.16;;;9.81;70.23
11415;BME280;5763;42.714;23.244;2022-10-22T04:06:58;95336.09;;;9.86;70.12
11415;BME280;5763;42.714;23.244;2022-10-22T04:09:25;95337.72;;;9.84;69.97
11415;BME280;5763;42.714;23.244;2022-10-22T04:11:52;95336.25;;;9.79;69.64
11415;BME280;5763;42.714;23.244;2022-10-22T04:14:20;95326.34;;;9.69;70.34
11415;BME280;5763;42.714;23.244;2022-10-22T04:16:47;95320.16;;;9.69;70.17
11415;BME280;5763;42.714;23.244;2022-10-22T04:19:14;95322.25;;;9.77;69.89
11415;BME280;5763;42.714;23.244;2022-10-22T04:21:40;95325.50;;;9.72;70.05
11415;BME280;5763;42.714;23.244;2022-10-22T04:24:07;95323.13;;;9.74;70.04
11415;BME280;5763;42.714;23.244;2022-10-22T04:26:34;95315.75;;;9.87;69.76
11415;BME280;5763;42.714;23.244;2022-10-22T04:29:01;95315.75;;;9.87;69.58
11415;BME280;5763;42.714;23.244;2022-10-22T04:31:29;95328.22;;;9.88;69.59
11415;BME280;5763;42.714;23.244;2022-10-22T04:33:59;95328.72;;;9.99;69.34
11415;BME280;5763;42.714;23.244;2022-10-22T04:36:27;95320.50;;;9.99;69.33
11415;BME280;5763;42.714;23.244;2022-10-22T04:38:55;95326.34;;;10.01;69.22
11415;BME280;5763;42.714;23.244;2022-10-22T04:41:24;95328.22;;;9.88;69.82
11415;BME280;5763;42.714;23.244;2022-10-22T04:43:52;95321.47;;;9.93;70.24
11415;BME280;5763;42.714;23.244;2022-10-22T04:46:19;95324.78;;;10.00;69.80
11415;BME280;5763;42.714;23.244;2022-10-22T04:48:47;95331.34;;;10.03;69.92
11415;BME280;5763;42.714;23.244;2022-10-22T04:51:16;95330.44;;;10.09;69.66
11415;BME280;5763;42.714;23.244;2022-10-22T04:53:44;95328.59;;;10.06;69.82
11415;BME280;5763;42.714;23.244;2022-10-22T04:56:13;95339.91;;;10.21;69.35
11415;BME280;5763;42.714;23.244;2022-10-22T04:58:42;95339.06;;;10.24;69.10
11415;BME280;5763;42.714;23.244;2022-10-22T05:01:11;95328.19;;;10.20;69.45
11415;BME280;5763;42.714;23.244;2022-10-22T05:03:38;95344.84;;;10.26;69.56
11415;BME280;5763;42.714;23.244;2022-10-22T05:06:07;95351.03;;;10.14;70.44
11415;BME280;5763;42.714;23.244;2022-10-22T05:08:34;95372.97;;;10.10;70.74
11415;BME280;5763;42.714;23.244;2022-10-22T05:11:01;95356.59;;;10.10;70.90
11415;BME280;5763;42.714;23.244;2022-10-22T05:13:35;95368.19;;;10.14;71.22
11415;BME280;5763;42.714;23.244;2022-10-22T05:16:02;95364.94;;;10.19;70.58
11415;BME280;5763;42.714;23.244;2022-10-22T05:18:28;95351.53;;;10.25;70.55
11415;BME280;5763;42.714;23.244;2022-10-22T05:20:55;95355.25;;;10.31;70.25
11415;BME280;5763;42.714;23.244;2022-10-22T05:23:23;95346.16;;;10.21;70.23
11415;BME280;5763;42.714;23.244;2022-10-22T05:25:50;95363.22;;;10.25;70.44
11415;BME280;5763;42.714;23.244;2022-10-22T05:28:17;95370.31;;;10.23;70.36
11415;BME280;5763;42.714;23.244;2022-10-22T05:30:52;95361.69;;;10.24;70.58
11415;BME280;5763;42.714;23.244;2022-10-22T05:33:19;95365.19;;;10.25;70.57
11415;BME280;5763;42.714;23.244;2022-10-22T05:35:46;95363.31;;;10.22;70.52
11415;BME280;5763;42.714;23.244;2022-10-22T05:38:13;95357.41;;;10.23;70.38
11415;BME280;5763;42.714;23.244;2022-10-22T05:40:42;95355.22;;;10.18;70.55
11415;BME280;5763;42.714;23.244;2022-10-22T05:43:09;95357.00;;;10.25;70.50
11415;BME280;5763;42.714;23.244;2022-10-22T05:45:36;95365.31;;;10.21;70.68
11415;BME280;5763;42.714;23.244;2022-10-22T05:48:04;95366.47;;;10.20;70.85
11415;BME280;5763;42.714;23.244;2022-10-22T05:50:34;95370.56;;;10.28;71.46
11415;BME280;5763;42.714;23.244;2022-10-22T05:53:01;95357.22;;;10.30;71.38
11415;BME280;5763;42.714;23.244;2022-10-22T05:55:28;95364.28;;;10.44;71.38
11415;BME280;5763;42.714;23.244;2022-10-22T05:57:56;95362.03;;;10.55;71.18
11415;BME280;5763;42.714;23.244;2022-10-22T06:00:23;95354.25;;;10.53;70.94
11415;BME280;5763;42.714;23.244;2022-10-22T06:02:50;95363.56;;;10.56;71.08
11415;BME280;5763;42.714;23.244;2022-10-22T06:05:17;95364.56;;;10.62;70.85
11415;BME280;5763;42.714;23.244;2022-10-22T06:07:43;95367.34;;;10.74;70.49
11415;BME280;5763;42.714;23.244;2022-10-22T06:10:13;95371.28;;;10.73;70.69
11415;BME280;5763;42.714;23.244;2022-10-22T06:12:40;95375.69;;;10.83;70.69
11415;BME280;5763;42.714;23.244;2022-10-22T06:15:10;95377.59;;;10.99;69.79
11415;BME280;5763;42.714;23.244;2022-10-22T06:17:37;95369.50;;;11.08;69.75
11415;BME280;5763;42.714;23.244;2022-10-22T06:20:05;95378.28;;;11.15;69.64
11415;BME280;5763;42.714;23.244;2022-10-22T06:22:32;95373.78;;;11.21;69.21
11415;BME280;5763;42.714;23.244;2022-10-22T06:24:59;95374.31;;;11.16;69.63
11415;BME280;5763;42.714;23.244;2022-10-22T06:27:25;95374.44;;;11.25;69.43
11415;BME280;5763;42.714;23.244;2022-10-22T06:29:52;95380.38;;;11.36;69.28
11415;BME280;5763;42.714;23.244;2022-10-22T06:32:20;95386.28;;;11.35;69.67
11415;BME280;5763;42.714;23.244;2022-10-22T06:34:47;95384.22;;;11.39;69.63
11415;BME280;5763;42.714;23.244;2022-10-22T06:37:15;95372.03;;;11.40;69.96
11415;BME280;5763;42.714;23.244;2022-10-22T06:39:42;95372.28;;;11.45;69.62
11415;BME280;5763;42.714;23.244;2022-10-22T06:42:09;95370.41;;;11.55;69.26
11415;BME280;5763;42.714;23.244;2022-10-22T06:44:35;95373.81;;;11.71;69.09
11415;BME280;5763;42.714;23.244;2022-10-22T06:47:02;95376.13;;;11.85;68.32
11415;BME280;5763;42.714;23.244;2022-10-22T06:49:31;95379.84;;;11.91;68.26
11415;BME280;5763;42.714;23.244;2022-10-22T06:51:58;95386.94;;;12.01;67.82
11415;BME280;5763;42.714;23.244;2022-10-22T06:54:25;95389.56;;;12.05;67.73
11415;BME280;5763;42.714;23.244;2022-10-22T06:56:51;95391.53;;;12.17;67.30
11415;BME280;5763;42.714;23.244;2022-10-22T06:59:18;95384.28;;;12.10;67.49
11415;BME280;5763;42.714;23.244;2022-10-22T07:01:45;95388.47;;;12.02;67.78
11415;BME280;5763;42.714;23.244;2022-10-22T07:04:12;95386.50;;;12.03;67.97
11415;BME280;5763;42.714;23.244;2022-10-22T07:06:40;95380.66;;;12.13;67.77
11415;BME280;5763;42.714;23.244;2022-10-22T07:09:07;95366.16;;;12.13;66.79
11415;BME280;5763;42.714;23.244;2022-10-22T07:11:38;95381.16;;;12.33;66.48
11415;BME280;5763;42.714;23.244;2022-10-22T07:14:06;95376.22;;;12.62;65.26
11415;BME280;5763;42.714;23.244;2022-10-22T07:16:33;95381.59;;;12.87;64.20
11415;BME280;5763;42.714;23.244;2022-10-22T07:19:00;95378.34;;;13.01;63.34
11415;BME280;5763;42.714;23.244;2022-10-22T07:21:28;95368.94;;;13.11;62.90
11415;BME280;5763;42.714;23.244;2022-10-22T07:23:57;95374.28;;;13.36;62.39
11415;BME280;5763;42.714;23.244;2022-10-22T07:26:25;95365.44;;;13.41;62.19
11415;BME280;5763;42.714;23.244;2022-10-22T07:28:55;95364.63;;;13.62;61.99
11415;BME280;5763;42.714;23.244;2022-10-22T07:31:22;95363.63;;;13.87;61.62
11415;BME280;5763;42.714;23.244;2022-10-22T07:33:48;95369.66;;;14.12;60.85
11415;BME280;5763;42.714;23.244;2022-10-22T07:36:16;95374.31;;;14.33;59.89
11415;BME280;5763;42.714;23.244;2022-10-22T07:38:43;95361.19;;;14.46;58.80
11415;BME280;5763;42.714;23.244;2022-10-22T07:41:12;95360.41;;;14.64;58.56
11415;BME280;5763;42.714;23.244;2022-10-22T07:43:39;95351.06;;;14.70;58.51
11415;BME280;5763;42.714;23.244;2022-10-22T07:46:05;95355.66;;;14.82;58.33
11415;BME280;5763;42.714;23.244;2022-10-22T07:48:33;95352.88;;;14.91;57.45
11415;BME280;5763;42.714;23.244;2022-10-22T07:51:00;95347.50;;;15.06;56.88
11415;BME280;5763;42.714;23.244;2022-10-22T07:53:27;95351.88;;;15.30;56.22
11415;BME280;5763;42.714;23.244;2022-10-22T07:55:54;95350.94;;;15.51;55.41
11415;BME280;5763;42.714;23.244;2022-10-22T07:58:22;95352.50;;;15.76;54.08
11415;BME280;5763;42.714;23.244;2022-10-22T08:00:49;95353.25;;;15.85;53.85
11415;BME280;5763;42.714;23.244;2022-10-22T08:03:17;95351.09;;;16.13;53.21
11415;BME280;5763;42.714;23.244;2022-10-22T08:05:44;95340.09;;;16.27;53.23
11415;BME280;5763;42.714;23.244;2022-10-22T08:08:12;95342.81;;;16.36;52.38
11415;BME280;5763;42.714;23.244;2022-10-22T08:10:39;95344.69;;;16.77;51.29
11415;BME280;5763;42.714;23.244;2022-10-22T08:13:07;95344.41;;;16.90;50.94
11415;BME280;5763;42.714;23.244;2022-10-22T08:15:35;95348.63;;;17.14;50.26
11415;BME280;5763;42.714;23.244;2022-10-22T08:18:02;95338.53;;;17.26;50.31
11415;BME280;5763;42.714;23.244;2022-10-22T08:20:29;95330.88;;;17.50;49.40
11415;BME280;5763;42.714;23.244;2022-10-22T08:22:56;95329.34;;;17.63;48.38
11415;BME280;5763;42.714;23.244;2022-10-22T08:25:24;95328.34;;;17.81;47.45
11415;BME280;5763;42.714;23.244;2022-10-22T08:27:50;95323.34;;;17.99;47.04
11415;BME280;5763;42.714;23.244;2022-10-22T08:30:18;95323.44;;;18.25;46.67
11415;BME280;5763;42.714;23.244;2022-10-22T08:32:46;95316.81;;;18.37;45.91
11415;BME280;5763;42.714;23.244;2022-10-22T08:35:13;95318.56;;;18.35;46.42
11415;BME280;5763;42.714;23.244;2022-10-22T08:37:40;95289.97;;;18.08;46.59
11415;BME280;5763;42.714;23.244;2022-10-22T08:40:08;95323.97;;;18.64;45.87
11415;BME280;5763;42.714;23.244;2022-10-22T08:42:56;95322.47;;;18.68;46.05
11415;BME280;5763;42.714;23.244;2022-10-22T08:45:31;95319.44;;;18.86;45.53
11415;BME280;5763;42.714;23.244;2022-10-22T08:48:10;95321.50;;;19.17;44.78
11415;BME280;5763;42.714;23.244;2022-10-22T08:50:44;95325.88;;;19.23;44.63
11415;BME280;5763;42.714;23.244;2022-10-22T08:53:13;95327.38;;;19.50;43.80
11415;BME280;5763;42.714;23.244;2022-10-22T08:55:41;95328.09;;;19.76;43.67
11415;BME280;5763;42.714;23.244;2022-10-22T08:58:15;95323.66;;;19.89;43.11
11415;BME280;5763;42.714;23.244;2022-10-22T09:00:46;95323.38;;;19.87;42.93
11415;BME280;5763;42.714;23.244;2022-10-22T09:03:30;95322.56;;;19.81;42.98
11415;BME280;5763;42.714;23.244;2022-10-22T09:06:04;95312.34;;;19.98;42.64
11415;BME280;5763;42.714;23.244;2022-10-22T09:08:35;95310.97;;;19.83;42.57
11415;BME280;5763;42.714;23.244;2022-10-22T09:11:06;95300.47;;;19.98;42.18
11415;BME280;5763;42.714;23.244;2022-10-22T09:13:40;95311.00;;;20.25;40.92
11415;BME280;5763;42.714;23.244;2022-10-22T09:16:13;95299.22;;;20.41;41.20
11415;BME280;5763;42.714;23.244;2022-10-22T09:18:49;95305.28;;;20.45;41.49
11415;BME280;5763;42.714;23.244;2022-10-22T09:21:26;95289.63;;;20.42;39.68
11415;BME280;5763;42.714;23.244;2022-10-22T09:24:13;95296.97;;;20.56;40.40
11415;BME280;5763;42.714;23.244;2022-10-22T09:26:42;95285.13;;;20.61;40.88
11415;BME280;5763;42.714;23.244;2022-10-22T09:29:16;95293.94;;;20.54;41.10
11415;BME280;5763;42.714;23.244;2022-10-22T09:31:43;95299.50;;;20.48;40.96
11415;BME280;5763;42.714;23.244;2022-10-22T09:34:14;95298.25;;;20.49;40.98
11415;BME280;5763;42.714;23.244;2022-10-22T09:36:41;95285.03;;;20.39;41.05
11415;BME280;5763;42.714;23.244;2022-10-22T09:39:22;95282.69;;;20.21;41.01
11415;BME280;5763;42.714;23.244;2022-10-22T09:41:50;95280.94;;;20.29;40.88
11415;BME280;5763;42.714;23.244;2022-10-22T09:44:17;95266.06;;;20.32;41.14
11415;BME280;5763;42.714;23.244;2022-10-22T09:46:44;95271.06;;;20.17;41.22
11415;BME280;5763;42.714;23.244;2022-10-22T09:49:14;95277.44;;;20.28;40.89
11415;BME280;5763;42.714;23.244;2022-10-22T09:51:48;95275.66;;;20.31;40.29
11415;BME280;5763;42.714;23.244;2022-10-22T09:54:18;95271.63;;;20.32;40.70
11415;BME280;5763;42.714;23.244;2022-10-22T09:56:54;95274.94;;;20.36;40.80
11415;BME280;5763;42.714;23.244;2022-10-22T09:59:29;95265.56;;;20.39;41.16
11415;BME280;5763;42.714;23.244;2022-10-22T10:01:58;95264.81;;;20.33;41.36
11415;BME280;5763;42.714;23.244;2022-10-22T10:04:26;95250.69;;;19.94;41.67
11415;BME280;5763;42.714;23.244;2022-10-22T10:06:54;95252.44;;;19.92;41.57
11415;BME280;5763;42.714;23.244;2022-10-22T10:09:24;95245.38;;;19.91;41.81
11415;BME280;5763;42.714;23.244;2022-10-22T10:11:59;95252.03;;;20.10;41.93
11415;BME280;5763;42.714;23.244;2022-10-22T10:14:34;95255.34;;;20.14;42.24
11415;BME280;5763;42.714;23.244;2022-10-22T10:17:09;95244.63;;;20.43;41.31
11415;BME280;5763;42.714;23.244;2022-10-22T10:19:55;95181.63;;;20.24;41.16
11415;BME280;5763;42.714;23.244;2022-10-22T10:22:38;95243.03;;;20.95;40.06
11415;BME280;5763;42.714;23.244;2022-10-22T10:25:33;95234.94;;;21.08;39.33
11415;BME280;5763;42.714;23.244;2022-10-22T10:28:21;95245.56;;;21.32;39.61
11415;BME280;5763;42.714;23.244;2022-10-22T10:30:53;95240.00;;;21.54;38.94
11415;BME280;5763;42.714;23.244;2022-10-22T10:33:31;95229.63;;;21.76;38.97
11415;BME280;5763;42.714;23.244;2022-10-22T10:36:05;95219.94;;;21.94;38.14
11415;BME280;5763;42.714;23.244;2022-10-22T10:38:49;95209.56;;;21.89;37.73
11415;BME280;5763;42.714;23.244;2022-10-22T10:41:27;95203.44;;;22.07;37.32
11415;BME280;5763;42.714;23.244;2022-10-22T10:44:14;95201.09;;;22.22;36.60
11415;BME280;5763;42.714;23.244;2022-10-22T10:46:46;95198.53;;;22.29;nan
11415;BME280;5763;42.714;23.244;2022-10-22T10:49:22;95194.19;;;22.39;35.69
11415;BME280;5763;42.714;23.244;2022-10-22T10:51:57;95183.69;;;22.62;35.61
11415;BME280;5763;42.714;23.244;2022-10-22T10:54:40;95173.19;;;22.73;36.23
11415;BME280;5763;42.714;23.244;2022-10-22T10:57:15;95172.59;;;22.86;35.92
11415;BME280;5763;42.714;23.244;2022-10-22T10:59:56;95167.19;;;22.99;34.99
11415;BME280;5763;42.714;23.244;2022-10-22T11:02:51;95164.59;;;23.06;35.72
11415;BME280;5763;42.714;23.244;2022-10-22T11:05:29;95170.25;;;22.95;35.24
11415;BME280;5763;42.714;23.244;2022-10-22T11:08:02;95157.31;;;22.98;35.23
11415;BME280;5763;42.714;23.244;2022-10-22T11:10:36;95151.56;;;23.14;35.08
11415;BME280;5763;42.714;23.244;2022-10-22T11:13:10;95146.34;;;23.05;35.36
11415;BME280;5763;42.714;23.244;2022-10-22T11:15:40;95135.56;;;23.15;35.30
11415;BME280;5763;42.714;23.244;2022-10-22T11:18:16;95131.59;;;23.34;35.29
11415;BME280;5763;42.714;23.244;2022-10-22T11:20:51;95119.69;;;23.34;35.58
11415;BME280;5763;42.714;23.244;2022-10-22T11:23:26;95117.13;;;23.36;35.70
11415;BME280;5763;42.714;23.244;2022-10-22T11:25:53;95126.59;;;23.27;35.73
11415;BME280;5763;42.714;23.244;2022-10-22T11:28:25;95119.88;;;23.41;35.44
11415;BME280;5763;42.714;23.244;2022-10-22T11:30:58;95121.75;;;23.57;35.05
11415;BME280;5763;42.714;23.244;2022-10-22T11:33:38;95114.09;;;23.58;34.62
11415;BME280;5763;42.714;23.244;2022-10-22T11:36:08;95099.31;;;23.39;34.81
11415;BME280;5763;42.714;23.244;2022-10-22T11:38:38;95111.97;;;23.45;35.00
11415;BME280;5763;42.714;23.244;2022-10-22T11:41:09;95093.88;;;23.70;34.33
11415;BME280;5763;42.714;23.244;2022-10-22T11:43:55;95100.41;;;24.02;34.05
11415;BME280;5763;42.714;23.244;2022-10-22T11:46:33;95103.22;;;24.21;34.35
11415;BME280;5763;42.714;23.244;2022-10-22T11:49:13;95099.13;;;24.40;33.99
11415;BME280;5763;42.714;23.244;2022-10-22T11:51:44;95094.34;;;24.54;32.61
11415;BME280;5763;42.714;23.244;2022-10-22T11:54:37;95086.78;;;24.67;32.08
11415;BME280;5763;42.714;23.244;2022-10-22T11:57:18;95114.59;;;24.97;32.27
11415;BME280;5763;42.714;23.244;2022-10-22T11:59:49;95093.03;;;25.05;31.62
11415;BME280;5763;42.714;23.244;2022-10-22T12:02:38;95099.88;;;25.22;30.77
11415;BME280;5763;42.714;23.244;2022-10-22T12:05:17;95097.38;;;25.50;30.92
11415;BME280;5763;42.714;23.244;2022-10-22T12:07:52;95084.09;;;25.77;30.61
11415;BME280;5763;42.714;23.244;2022-10-22T12:10:25;95084.97;;;25.98;30.17
11415;BME280;5763;42.714;23.244;2022-10-22T12:12:55;95076.75;;;26.13;29.94
11415;BME280;5763;42.714;23.244;2022-10-22T12:15:25;95078.22;;;26.40;29.66
11415;BME280;5763;42.714;23.244;2022-10-22T12:17:57;95075.81;;;26.57;29.56
11415;BME280;5763;42.714;23.244;2022-10-22T12:20:25;95070.28;;;26.85;29.16
11415;BME280;5763;42.714;23.244;2022-10-22T12:22:54;95065.78;;;27.02;28.60
11415;BME280;5763;42.714;23.244;2022-10-22T12:25:24;95065.09;;;27.09;28.13
11415;BME280;5763;42.714;23.244;2022-10-22T12:27:53;95062.56;;;27.19;27.56
11415;BME280;5763;42.714;23.244;2022-10-22T12:30:23;95053.09;;;27.09;28.09
11415;BME280;5763;42.714;23.244;2022-10-22T12:32:52;95061.69;;;27.24;27.36
11415;BME280;5763;42.714;23.244;2022-10-22T12:35:23;95059.53;;;27.37;27.54
11415;BME280;5763;42.714;23.244;2022-10-22T12:37:50;95055.72;;;27.55;26.83
11415;BME280;5763;42.714;23.244;2022-10-22T12:40:19;95050.91;;;27.63;27.64
11415;BME280;5763;42.714;23.244;2022-10-22T12:42:49;95041.97;;;27.72;27.25
11415;BME280;5763;42.714;23.244;2022-10-22T12:45:16;95054.72;;;27.73;27.06
11415;BME280;5763;42.714;23.244;2022-10-22T12:47:47;95045.72;;;27.75;27.04
11415;BME280;5763;42.714;23.244;2022-10-22T12:50:18;95035.69;;;27.87;26.77
11415;BME280;5763;42.714;23.244;2022-10-22T12:52:46;95035.50;;;27.85;26.95
11415;BME280;5763;42.714;23.244;2022-10-22T12:55:15;95035.69;;;27.87;26.86
11415;BME280;5763;42.714;23.244;2022-10-22T12:57:42;95034.53;;;27.82;27.06
11415;BME280;5763;42.714;23.244;2022-10-22T13:00:23;95031.16;;;27.56;26.86
11415;BME280;5763;42.714;23.244;2022-10-22T13:02:50;95034.34;;;27.24;27.19
11415;BME280;5763;42.714;23.244;2022-10-22T13:05:23;95029.53;;;26.91;27.81
11415;BME280;5763;42.714;23.244;2022-10-22T13:07:53;95035.00;;;26.56;28.44
11415;BME280;5763;42.714;23.244;2022-10-22T13:10:25;95041.69;;;26.19;28.81
11415;BME280;5763;42.714;23.244;2022-10-22T13:12:55;95028.13;;;25.84;29.45
11415;BME280;5763;42.714;23.244;2022-10-22T13:15:35;95029.13;;;25.74;29.83
11415;BME280;5763;42.714;23.244;2022-10-22T13:18:05;95018.88;;;25.37;30.18
11415;BME280;5763;42.714;23.244;2022-10-22T13:20:32;95021.50;;;25.04;30.72